Decoded Metar for KMYR (MYRTLE BEACH in SC, USA) (IATA:MYR) | Meteo·Mobile Aviation Weather
aviador You're here:

KMYR Decoded Metar

MYRTLE BEACH in SC, USA
Report Time2018-11-18 19:56:00
UTC Time2018-11-18 20:21:01
Flight Rules vfr VFR
Wind080° at 05 kt
W.Decomp.*RWY 36: 0.3 kt HW 5.0 kt RCW
W.Rank080° ranks 33
Current wind is below 080° avg. (9.6)
Visibility9999 m
Phenomena:N/A
Clouds:Overcast 060 Hf
Expected CloudBase > 1,600 ft AGL from Temp-Dew spread
Ceiling6,000 ft
Temp17°C (ISA +2)
Dew Point13°C (77% RH)
AAT16.1°C
QNH1024 hPa
Density Alt98 ft
Elevation26 ft
Report Wrong Elevation
Raw Report
METAR KMYR 181956Z 08005KT 10SM OVC060 17/13 A3023 RMK AO2 SLP235 T01720133=

Extra information for KMYR:More info

Metar Taf Metar & Taf Last 4 Metars F.Rules Stats Wind Profile Meteogram Temp Stats Airport Information Weather charts Add Link Nearby VenuesMetar ALERT Operation Metar Decoded Social comments

AIRNAV info for KMYR